sensor_id;sensor_type;location;lat;lon;timestamp;pressure;altitude;pressure_sealevel;temperature;humidity
36454;BME280;22478;51.740;-1.314;2023-08-06T00:01:00;100127.46;;;5.27;100.00
36454;BME280;22478;51.740;-1.314;2023-08-06T00:03:27;100129.78;;;4.52;100.00
36454;BME280;22478;51.740;-1.314;2023-08-06T00:05:54;100136.47;;;4.56;100.00
36454;BME280;22478;51.740;-1.314;2023-08-06T00:08:21;100132.05;;;5.23;100.00
36454;BME280;22478;51.740;-1.314;2023-08-06T00:10:48;100131.21;;;5.91;100.00
36454;BME280;22478;51.740;-1.314;2023-08-06T00:13:16;100145.93;;;3.51;100.00
36454;BME280;22478;51.740;-1.314;2023-08-06T00:15:44;100145.42;;;4.73;100.00
36454;BME280;22478;51.740;-1.314;2023-08-06T00:18:10;100144.19;;;5.01;100.00
36454;BME280;22478;51.740;-1.314;2023-08-06T00:20:39;100141.47;;;4.85;100.00
36454;BME280;22478;51.740;-1.314;2023-08-06T00:23:06;100148.99;;;4.24;100.00
36454;BME280;22478;51.740;-1.314;2023-08-06T00:25:33;100148.75;;;4.76;100.00
36454;BME280;22478;51.740;-1.314;2023-08-06T00:28:00;100144.41;;;5.81;100.00
36454;BME280;22478;51.740;-1.314;2023-08-06T00:30:27;100152.53;;;4.66;100.00
36454;BME280;22478;51.740;-1.314;2023-08-06T00:32:54;100156.16;;;3.92;100.00
36454;BME280;22478;51.740;-1.314;2023-08-06T00:35:22;100156.28;;;4.99;100.00
36454;BME280;22478;51.740;-1.314;2023-08-06T00:37:49;100163.16;;;4.24;100.00
36454;BME280;22478;51.740;-1.314;2023-08-06T00:40:16;100167.19;;;4.34;100.00
36454;BME280;22478;51.740;-1.314;2023-08-06T00:42:43;100165.94;;;5.07;100.00
36454;BME280;22478;51.740;-1.314;2023-08-06T00:45:10;100169.80;;;4.59;100.00
36454;BME280;22478;51.740;-1.314;2023-08-06T00:47:38;100172.66;;;5.03;100.00
36454;BME280;22478;51.740;-1.314;2023-08-06T00:50:06;100168.68;;;5.72;100.00
36454;BME280;22478;51.740;-1.314;2023-08-06T00:52:34;100174.35;;;5.31;100.00
36454;BME280;22478;51.740;-1.314;2023-08-06T00:55:01;100174.64;;;4.28;100.00
36454;BME280;22478;51.740;-1.314;2023-08-06T00:57:29;100173.94;;;6.62;100.00
36454;BME280;22478;51.740;-1.314;2023-08-06T00:59:56;100184.86;;;4.74;100.00
36454;BME280;22478;51.740;-1.314;2023-08-06T01:02:24;100180.72;;;4.42;100.00
36454;BME280;22478;51.740;-1.314;2023-08-06T01:04:51;100185.26;;;5.25;100.00
36454;BME280;22478;51.740;-1.314;2023-08-06T01:07:29;100183.68;;;5.95;100.00
36454;BME280;22478;51.740;-1.314;2023-08-06T01:10:18;100189.85;;;4.65;100.00
36454;BME280;22478;51.740;-1.314;2023-08-06T01:12:54;100188.04;;;6.38;100.00
36454;BME280;22478;51.740;-1.314;2023-08-06T01:15:30;100187.05;;;5.27;100.00
36454;BME280;22478;51.740;-1.314;2023-08-06T01:17:59;100194.20;;;4.82;100.00
36454;BME280;22478;51.740;-1.314;2023-08-06T01:20:28;100196.62;;;4.91;100.00
36454;BME280;22478;51.740;-1.314;2023-08-06T01:22:56;100193.76;;;7.27;100.00
36454;BME280;22478;51.740;-1.314;2023-08-06T01:25:41;100200.63;;;5.37;100.00
36454;BME280;22478;51.740;-1.314;2023-08-06T01:28:17;100194.20;;;5.93;100.00
36454;BME280;22478;51.740;-1.314;2023-08-06T01:30:47;100193.97;;;6.70;100.00
36454;BME280;22478;51.740;-1.314;2023-08-06T01:33:19;100202.47;;;5.60;100.00
36454;BME280;22478;51.740;-1.314;2023-08-06T01:35:49;100202.05;;;6.30;100.00
36454;BME280;22478;51.740;-1.314;2023-08-06T01:38:17;100205.62;;;5.51;100.00
36454;BME280;22478;51.740;-1.314;2023-08-06T01:40:44;100207.28;;;5.08;100.00
36454;BME280;22478;51.740;-1.314;2023-08-06T01:43:12;100213.76;;;4.81;100.00
36454;BME280;22478;51.740;-1.314;2023-08-06T01:45:39;100217.65;;;5.15;100.00
36454;BME280;22478;51.740;-1.314;2023-08-06T01:48:05;100229.99;;;3.40;100.00
36454;BME280;22478;51.740;-1.314;2023-08-06T01:50:32;100225.22;;;4.53;100.00
36454;BME280;22478;51.740;-1.314;2023-08-06T01:53:00;100223.15;;;5.65;100.00
36454;BME280;22478;51.740;-1.314;2023-08-06T01:55:29;100228.88;;;5.42;100.00
36454;BME280;22478;51.740;-1.314;2023-08-06T01:57:56;100235.26;;;4.47;100.00
36454;BME280;22478;51.740;-1.314;2023-08-06T02:00:23;100239.40;;;4.46;100.00
36454;BME280;22478;51.740;-1.314;2023-08-06T02:02:50;100238.97;;;4.65;100.00
36454;BME280;22478;51.740;-1.314;2023-08-06T02:05:17;100240.53;;;4.06;100.00
36454;BME280;22478;51.740;-1.314;2023-08-06T02:07:45;100238.01;;;4.56;100.00
36454;BME280;22478;51.740;-1.314;2023-08-06T02:10:12;100243.63;;;3.54;100.00
36454;BME280;22478;51.740;-1.314;2023-08-06T02:12:39;100241.09;;;5.05;100.00
36454;BME280;22478;51.740;-1.314;2023-08-06T02:15:07;100245.38;;;3.88;100.00
36454;BME280;22478;51.740;-1.314;2023-08-06T02:17:34;100249.83;;;4.46;100.00
36454;BME280;22478;51.740;-1.314;2023-08-06T02:20:01;100242.87;;;4.85;100.00
36454;BME280;22478;51.740;-1.314;2023-08-06T02:22:29;100248.17;;;5.44;100.00
36454;BME280;22478;51.740;-1.314;2023-08-06T02:24:56;100250.45;;;5.74;100.00
36454;BME280;22478;51.740;-1.314;2023-08-06T02:27:23;100261.11;;;3.67;100.00
36454;BME280;22478;51.740;-1.314;2023-08-06T02:29:50;100264.75;;;2.97;100.00
36454;BME280;22478;51.740;-1.314;2023-08-06T02:32:18;100254.63;;;4.97;100.00
36454;BME280;22478;51.740;-1.314;2023-08-06T02:34:45;100251.02;;;4.31;100.00
36454;BME280;22478;51.740;-1.314;2023-08-06T02:37:12;100255.77;;;3.42;100.00
36454;BME280;22478;51.740;-1.314;2023-08-06T02:39:39;100250.44;;;4.69;100.00
36454;BME280;22478;51.740;-1.314;2023-08-06T02:42:06;100254.95;;;3.40;100.00
36454;BME280;22478;51.740;-1.314;2023-08-06T02:44:33;100251.03;;;4.50;100.00
36454;BME280;22478;51.740;-1.314;2023-08-06T02:47:01;100253.13;;;4.39;100.00
36454;BME280;22478;51.740;-1.314;2023-08-06T02:49:29;100259.81;;;4.12;100.00
36454;BME280;22478;51.740;-1.314;2023-08-06T02:51:57;100256.53;;;5.64;100.00
36454;BME280;22478;51.740;-1.314;2023-08-06T02:54:24;100254.32;;;5.60;100.00
36454;BME280;22478;51.740;-1.314;2023-08-06T02:56:51;100257.49;;;4.16;100.00
36454;BME280;22478;51.740;-1.314;2023-08-06T02:59:18;100258.18;;;4.40;100.00
36454;BME280;22478;51.740;-1.314;2023-08-06T03:01:45;100255.06;;;5.14;100.00
36454;BME280;22478;51.740;-1.314;2023-08-06T03:04:13;100251.35;;;5.22;100.00
36454;BME280;22478;51.740;-1.314;2023-08-06T03:06:40;100252.60;;;5.38;100.00
36454;BME280;22478;51.740;-1.314;2023-08-06T03:09:08;100253.03;;;4.58;100.00
36454;BME280;22478;51.740;-1.314;2023-08-06T03:11:35;100249.15;;;4.87;100.00
36454;BME280;22478;51.740;-1.314;2023-08-06T03:14:03;100251.57;;;4.50;100.00
36454;BME280;22478;51.740;-1.314;2023-08-06T03:16:30;100246.83;;;6.47;100.00
36454;BME280;22478;51.740;-1.314;2023-08-06T03:18:57;100261.38;;;3.77;100.00
36454;BME280;22478;51.740;-1.314;2023-08-06T03:21:24;100260.28;;;4.54;100.00
36454;BME280;22478;51.740;-1.314;2023-08-06T03:23:52;100261.44;;;3.70;100.00
36454;BME280;22478;51.740;-1.314;2023-08-06T03:26:19;100257.42;;;4.24;100.00
36454;BME280;22478;51.740;-1.314;2023-08-06T03:28:46;100256.43;;;4.44;100.00
36454;BME280;22478;51.740;-1.314;2023-08-06T03:31:13;100254.42;;;4.43;100.00
36454;BME280;22478;51.740;-1.314;2023-08-06T03:33:41;100257.61;;;3.99;100.00
36454;BME280;22478;51.740;-1.314;2023-08-06T03:36:08;100251.31;;;4.67;100.00
36454;BME280;22478;51.740;-1.314;2023-08-06T03:38:36;100250.50;;;5.18;100.00
36454;BME280;22478;51.740;-1.314;2023-08-06T03:41:03;100256.50;;;3.64;100.00
36454;BME280;22478;51.740;-1.314;2023-08-06T03:43:30;100253.99;;;4.85;100.00
36454;BME280;22478;51.740;-1.314;2023-08-06T03:45:57;100263.03;;;3.63;100.00
36454;BME280;22478;51.740;-1.314;2023-08-06T03:48:25;100261.61;;;4.57;100.00
36454;BME280;22478;51.740;-1.314;2023-08-06T03:50:52;100258.59;;;4.77;100.00
36454;BME280;22478;51.740;-1.314;2023-08-06T03:53:19;100268.17;;;3.30;100.00
36454;BME280;22478;51.740;-1.314;2023-08-06T03:55:47;100269.17;;;4.16;100.00
36454;BME280;22478;51.740;-1.314;2023-08-06T03:58:14;100275.35;;;3.11;100.00
36454;BME280;22478;51.740;-1.314;2023-08-06T04:00:41;100269.71;;;4.26;100.00
36454;BME280;22478;51.740;-1.314;2023-08-06T04:03:09;100267.16;;;3.64;100.00
36454;BME280;22478;51.740;-1.314;2023-08-06T04:05:37;100264.50;;;4.02;100.00
36454;BME280;22478;51.740;-1.314;2023-08-06T04:08:04;100263.30;;;4.03;100.00
36454;BME280;22478;51.740;-1.314;2023-08-06T04:10:32;100265.51;;;4.74;100.00
36454;BME280;22478;51.740;-1.314;2023-08-06T04:12:59;100267.31;;;4.06;100.00
36454;BME280;22478;51.740;-1.314;2023-08-06T04:15:26;100273.46;;;4.96;100.00
36454;BME280;22478;51.740;-1.314;2023-08-06T04:17:53;100277.86;;;4.58;100.00
36454;BME280;22478;51.740;-1.314;2023-08-06T04:20:21;100278.64;;;4.28;100.00
36454;BME280;22478;51.740;-1.314;2023-08-06T04:22:48;100280.22;;;4.69;100.00
36454;BME280;22478;51.740;-1.314;2023-08-06T04:25:15;100272.48;;;5.27;100.00
36454;BME280;22478;51.740;-1.314;2023-08-06T04:27:42;100273.38;;;4.97;100.00
36454;BME280;22478;51.740;-1.314;2023-08-06T04:30:10;100276.37;;;5.19;100.00
36454;BME280;22478;51.740;-1.314;2023-08-06T04:32:39;100281.88;;;5.17;100.00
36454;BME280;22478;51.740;-1.314;2023-08-06T04:35:07;100283.45;;;5.79;100.00
36454;BME280;22478;51.740;-1.314;2023-08-06T04:37:35;100279.13;;;5.68;100.00
36454;BME280;22478;51.740;-1.314;2023-08-06T04:40:02;100282.06;;;4.55;100.00
36454;BME280;22478;51.740;-1.314;2023-08-06T04:42:29;100280.32;;;6.12;100.00
36454;BME280;22478;51.740;-1.314;2023-08-06T04:44:57;100285.60;;;5.60;100.00
36454;BME280;22478;51.740;-1.314;2023-08-06T04:47:23;100285.31;;;5.93;100.00
36454;BME280;22478;51.740;-1.314;2023-08-06T04:49:51;100292.31;;;6.13;100.00
36454;BME280;22478;51.740;-1.314;2023-08-06T04:52:18;100290.20;;;5.22;100.00
36454;BME280;22478;51.740;-1.314;2023-08-06T04:54:46;100301.44;;;4.03;100.00
36454;BME280;22478;51.740;-1.314;2023-08-06T04:57:13;100293.28;;;5.11;100.00
36454;BME280;22478;51.740;-1.314;2023-08-06T04:59:40;100305.49;;;3.88;100.00
36454;BME280;22478;51.740;-1.314;2023-08-06T05:02:08;100301.15;;;4.85;100.00
36454;BME280;22478;51.740;-1.314;2023-08-06T05:04:35;100305.07;;;4.86;100.00
36454;BME280;22478;51.740;-1.314;2023-08-06T05:07:03;100308.22;;;5.49;100.00
36454;BME280;22478;51.740;-1.314;2023-08-06T05:09:30;100311.53;;;5.30;100.00
36454;BME280;22478;51.740;-1.314;2023-08-06T05:12:01;100321.59;;;3.88;100.00
36454;BME280;22478;51.740;-1.314;2023-08-06T05:14:28;100319.73;;;5.21;100.00
36454;BME280;22478;51.740;-1.314;2023-08-06T05:16:56;100325.34;;;4.54;100.00
36454;BME280;22478;51.740;-1.314;2023-08-06T05:19:23;100325.40;;;4.98;100.00
36454;BME280;22478;51.740;-1.314;2023-08-06T05:21:49;100324.07;;;5.53;100.00
36454;BME280;22478;51.740;-1.314;2023-08-06T05:24:16;100323.90;;;5.92;100.00
36454;BME280;22478;51.740;-1.314;2023-08-06T05:26:44;100327.80;;;4.75;100.00
36454;BME280;22478;51.740;-1.314;2023-08-06T05:29:11;100327.45;;;4.69;100.00
36454;BME280;22478;51.740;-1.314;2023-08-06T05:31:38;100329.66;;;5.09;100.00
36454;BME280;22478;51.740;-1.314;2023-08-06T05:34:05;100331.23;;;4.99;100.00
36454;BME280;22478;51.740;-1.314;2023-08-06T05:36:32;100331.63;;;5.40;100.00
36454;BME280;22478;51.740;-1.314;2023-08-06T05:38:59;100336.91;;;4.91;100.00
36454;BME280;22478;51.740;-1.314;2023-08-06T05:41:27;100334.85;;;6.23;100.00
36454;BME280;22478;51.740;-1.314;2023-08-06T05:43:54;100336.41;;;6.14;100.00
36454;BME280;22478;51.740;-1.314;2023-08-06T05:46:21;100335.77;;;5.94;100.00
36454;BME280;22478;51.740;-1.314;2023-08-06T05:48:49;100329.94;;;6.35;100.00
36454;BME280;22478;51.740;-1.314;2023-08-06T05:51:15;100332.42;;;6.08;100.00
36454;BME280;22478;51.740;-1.314;2023-08-06T05:53:43;100333.84;;;6.87;100.00
36454;BME280;22478;51.740;-1.314;2023-08-06T05:56:10;100334.67;;;6.16;100.00
36454;BME280;22478;51.740;-1.314;2023-08-06T05:58:37;100340.49;;;6.61;100.00
36454;BME280;22478;51.740;-1.314;2023-08-06T06:01:04;100345.18;;;5.99;100.00
36454;BME280;22478;51.740;-1.314;2023-08-06T06:03:31;100346.79;;;5.58;100.00
36454;BME280;22478;51.740;-1.314;2023-08-06T06:06:01;100352.46;;;5.29;100.00
36454;BME280;22478;51.740;-1.314;2023-08-06T06:08:28;100345.64;;;6.76;100.00
36454;BME280;22478;51.740;-1.314;2023-08-06T06:10:55;100351.67;;;7.45;100.00
36454;BME280;22478;51.740;-1.314;2023-08-06T06:13:23;100357.90;;;5.55;100.00
36454;BME280;22478;51.740;-1.314;2023-08-06T06:15:50;100350.16;;;6.40;100.00
36454;BME280;22478;51.740;-1.314;2023-08-06T06:18:21;100351.50;;;6.86;100.00
36454;BME280;22478;51.740;-1.314;2023-08-06T06:20:48;100352.41;;;6.27;100.00
36454;BME280;22478;51.740;-1.314;2023-08-06T06:23:15;100355.92;;;7.03;100.00
36454;BME280;22478;51.740;-1.314;2023-08-06T06:25:43;100355.81;;;6.93;100.00
36454;BME280;22478;51.740;-1.314;2023-08-06T06:28:11;100361.27;;;7.03;100.00
36454;BME280;22478;51.740;-1.314;2023-08-06T06:30:37;100371.92;;;5.85;100.00
36454;BME280;22478;51.740;-1.314;2023-08-06T06:33:04;100370.09;;;7.10;100.00
36454;BME280;22478;51.740;-1.314;2023-08-06T06:35:32;100371.38;;;6.08;100.00
36454;BME280;22478;51.740;-1.314;2023-08-06T06:37:59;100375.97;;;7.20;100.00
36454;BME280;22478;51.740;-1.314;2023-08-06T06:40:26;100381.11;;;5.79;100.00
36454;BME280;22478;51.740;-1.314;2023-08-06T06:42:53;100374.99;;;7.53;100.00
36454;BME280;22478;51.740;-1.314;2023-08-06T06:45:20;100381.31;;;7.15;100.00
36454;BME280;22478;51.740;-1.314;2023-08-06T06:47:47;100381.94;;;7.43;100.00
36454;BME280;22478;51.740;-1.314;2023-08-06T06:50:14;100378.70;;;6.96;100.00
36454;BME280;22478;51.740;-1.314;2023-08-06T06:52:41;100387.83;;;5.84;100.00
36454;BME280;22478;51.740;-1.314;2023-08-06T06:55:08;100394.78;;;4.78;100.00
36454;BME280;22478;51.740;-1.314;2023-08-06T06:57:35;100390.78;;;6.68;100.00
36454;BME280;22478;51.740;-1.314;2023-08-06T07:00:03;100397.79;;;5.22;100.00
36454;BME280;22478;51.740;-1.314;2023-08-06T07:02:30;100393.42;;;6.21;100.00
36454;BME280;22478;51.740;-1.314;2023-08-06T07:04:58;100402.32;;;5.98;100.00
36454;BME280;22478;51.740;-1.314;2023-08-06T07:07:25;100399.54;;;5.08;100.00
36454;BME280;22478;51.740;-1.314;2023-08-06T07:09:52;100411.82;;;4.78;100.00
36454;BME280;22478;51.740;-1.314;2023-08-06T07:12:19;100408.74;;;6.65;100.00
36454;BME280;22478;51.740;-1.314;2023-08-06T07:14:46;100409.19;;;6.60;100.00
36454;BME280;22478;51.740;-1.314;2023-08-06T07:17:13;100412.25;;;5.67;100.00
36454;BME280;22478;51.740;-1.314;2023-08-06T07:19:40;100417.97;;;5.79;100.00
36454;BME280;22478;51.740;-1.314;2023-08-06T07:22:07;100414.09;;;6.35;100.00
36454;BME280;22478;51.740;-1.314;2023-08-06T07:24:34;100416.74;;;7.54;100.00
36454;BME280;22478;51.740;-1.314;2023-08-06T07:27:01;100417.62;;;7.42;100.00
36454;BME280;22478;51.740;-1.314;2023-08-06T07:29:29;100415.04;;;6.75;100.00
36454;BME280;22478;51.740;-1.314;2023-08-06T07:31:56;100424.81;;;5.76;100.00
36454;BME280;22478;51.740;-1.314;2023-08-06T07:34:24;100423.77;;;6.06;100.00
36454;BME280;22478;51.740;-1.314;2023-08-06T07:36:51;100425.23;;;5.95;100.00
36454;BME280;22478;51.740;-1.314;2023-08-06T07:39:18;100422.72;;;8.78;100.00
36454;BME280;22478;51.740;-1.314;2023-08-06T07:41:45;100423.64;;;7.50;100.00
36454;BME280;22478;51.740;-1.314;2023-08-06T07:44:12;100438.76;;;5.67;100.00
36454;BME280;22478;51.740;-1.314;2023-08-06T07:46:39;100435.15;;;7.87;100.00
36454;BME280;22478;51.740;-1.314;2023-08-06T07:49:06;100427.74;;;7.95;100.00
36454;BME280;22478;51.740;-1.314;2023-08-06T07:51:33;100441.07;;;6.43;100.00
36454;BME280;22478;51.740;-1.314;2023-08-06T07:54:00;100445.52;;;7.06;100.00
36454;BME280;22478;51.740;-1.314;2023-08-06T07:56:27;100441.22;;;7.61;100.00
36454;BME280;22478;51.740;-1.314;2023-08-06T07:58:54;100444.18;;;6.18;100.00
36454;BME280;22478;51.740;-1.314;2023-08-06T08:01:21;100438.85;;;7.54;100.00
36454;BME280;22478;51.740;-1.314;2023-08-06T08:03:48;100437.16;;;7.65;100.00
36454;BME280;22478;51.740;-1.314;2023-08-06T08:06:15;100437.76;;;9.39;100.00
36454;BME280;22478;51.740;-1.314;2023-08-06T08:08:42;100437.44;;;9.11;100.00
36454;BME280;22478;51.740;-1.314;2023-08-06T08:11:09;100437.65;;;8.13;100.00
36454;BME280;22478;51.740;-1.314;2023-08-06T08:13:37;100437.98;;;8.15;100.00
36454;BME280;22478;51.740;-1.314;2023-08-06T08:16:04;100436.77;;;8.46;100.00
36454;BME280;22478;51.740;-1.314;2023-08-06T08:18:31;100436.79;;;8.74;100.00
36454;BME280;22478;51.740;-1.314;2023-08-06T08:20:58;100442.31;;;7.54;100.00
36454;BME280;22478;51.740;-1.314;2023-08-06T08:23:25;100438.47;;;7.93;100.00
36454;BME280;22478;51.740;-1.314;2023-08-06T08:25:51;100445.26;;;8.45;100.00
36454;BME280;22478;51.740;-1.314;2023-08-06T08:28:18;100447.03;;;8.46;100.00
36454;BME280;22478;51.740;-1.314;2023-08-06T08:30:45;100443.34;;;9.68;100.00
36454;BME280;22478;51.740;-1.314;2023-08-06T08:33:13;100440.04;;;7.39;100.00
36454;BME280;22478;51.740;-1.314;2023-08-06T08:35:40;100444.93;;;7.30;100.00
36454;BME280;22478;51.740;-1.314;2023-08-06T08:38:07;100436.99;;;10.13;100.00
36454;BME280;22478;51.740;-1.314;2023-08-06T08:40:37;100441.62;;;9.07;100.00
36454;BME280;22478;51.740;-1.314;2023-08-06T08:43:08;100440.27;;;9.14;100.00
36454;BME280;22478;51.740;-1.314;2023-08-06T08:45:39;100436.68;;;10.09;100.00
36454;BME280;22478;51.740;-1.314;2023-08-06T08:48:06;100439.48;;;9.39;100.00
36454;BME280;22478;51.740;-1.314;2023-08-06T08:50:34;100434.19;;;10.38;100.00
36454;BME280;22478;51.740;-1.314;2023-08-06T08:53:01;100438.22;;;10.21;100.00
36454;BME280;22478;51.740;-1.314;2023-08-06T08:55:28;100449.30;;;8.53;100.00
36454;BME280;22478;51.740;-1.314;2023-08-06T08:57:56;100448.12;;;8.69;100.00
36454;BME280;22478;51.740;-1.314;2023-08-06T09:00:23;100450.95;;;8.66;100.00
36454;BME280;22478;51.740;-1.314;2023-08-06T09:02:51;100455.17;;;8.16;100.00
36454;BME280;22478;51.740;-1.314;2023-08-06T09:05:19;100457.50;;;8.67;100.00
36454;BME280;22478;51.740;-1.314;2023-08-06T09:07:50;100451.85;;;9.46;100.00
36454;BME280;22478;51.740;-1.314;2023-08-06T09:10:19;100461.03;;;7.90;100.00
36454;BME280;22478;51.740;-1.314;2023-08-06T09:12:48;100454.95;;;10.69;100.00
36454;BME280;22478;51.740;-1.314;2023-08-06T09:15:18;100460.57;;;10.02;100.00
36454;BME280;22478;51.740;-1.314;2023-08-06T09:17:45;100461.03;;;10.01;100.00
36454;BME280;22478;51.740;-1.314;2023-08-06T09:20:13;100466.22;;;9.53;100.00
36454;BME280;22478;51.740;-1.314;2023-08-06T09:22:41;100467.12;;;10.01;100.00
36454;BME280;22478;51.740;-1.314;2023-08-06T09:25:08;100470.32;;;7.98;100.00
36454;BME280;22478;51.740;-1.314;2023-08-06T09:27:36;100470.26;;;8.61;100.00
36454;BME280;22478;51.740;-1.314;2023-08-06T09:30:04;100469.87;;;7.65;100.00
36454;BME280;22478;51.740;-1.314;2023-08-06T09:32:45;100470.90;;;8.21;100.00
36454;BME280;22478;51.740;-1.314;2023-08-06T09:35:16;100474.48;;;9.33;100.00
36454;BME280;22478;51.740;-1.314;2023-08-06T09:37:43;100475.72;;;8.69;100.00
36454;BME280;22478;51.740;-1.314;2023-08-06T09:40:25;100460.75;;;10.33;100.00
36454;BME280;22478;51.740;-1.314;2023-08-06T09:42:52;100471.45;;;8.94;100.00
36454;BME280;22478;51.740;-1.314;2023-08-06T09:45:19;100466.62;;;10.75;100.00
36454;BME280;22478;51.740;-1.314;2023-08-06T09:47:46;100474.77;;;10.48;100.00
36454;BME280;22478;51.740;-1.314;2023-08-06T09:50:16;100471.07;;;10.80;100.00
36454;BME280;22478;51.740;-1.314;2023-08-06T09:52:44;100471.84;;;10.50;100.00
36454;BME280;22478;51.740;-1.314;2023-08-06T09:55:12;100476.31;;;11.57;100.00
36454;BME280;22478;51.740;-1.314;2023-08-06T09:57:40;100474.56;;;10.52;100.00
36454;BME280;22478;51.740;-1.314;2023-08-06T10:00:09;100476.18;;;12.73;100.00
36454;BME280;22478;51.740;-1.314;2023-08-06T10:02:37;100477.03;;;10.25;100.00
36454;BME280;22478;51.740;-1.314;2023-08-06T10:05:05;100475.27;;;12.14;100.00
36454;BME280;22478;51.740;-1.314;2023-08-06T10:07:34;100482.20;;;9.50;100.00
36454;BME280;22478;51.740;-1.314;2023-08-06T10:10:02;100474.61;;;11.29;100.00
36454;BME280;22478;51.740;-1.314;2023-08-06T10:12:33;100475.29;;;11.60;100.00
36454;BME280;22478;51.740;-1.314;2023-08-06T10:15:04;100472.95;;;10.27;100.00
36454;BME280;22478;51.740;-1.314;2023-08-06T10:17:34;100484.75;;;9.12;100.00
36454;BME280;22478;51.740;-1.314;2023-08-06T10:20:03;100482.58;;;10.71;100.00
36454;BME280;22478;51.740;-1.314;2023-08-06T10:22:32;100477.17;;;11.59;100.00
36454;BME280;22478;51.740;-1.314;2023-08-06T10:25:00;100480.67;;;11.56;100.00
36454;BME280;22478;51.740;-1.314;2023-08-06T10:27:30;100482.38;;;11.51;100.00
36454;BME280;22478;51.740;-1.314;2023-08-06T10:30:21;100479.98;;;10.79;100.00
36454;BME280;22478;51.740;-1.314;2023-08-06T10:32:49;100478.85;;;12.65;100.00
36454;BME280;22478;51.740;-1.314;2023-08-06T10:35:28;100480.91;;;10.62;100.00
36454;BME280;22478;51.740;-1.314;2023-08-06T10:37:58;100481.78;;;13.02;100.00
36454;BME280;22478;51.740;-1.314;2023-08-06T10:40:25;100484.52;;;12.06;100.00
36454;BME280;22478;51.740;-1.314;2023-08-06T10:42:53;100477.44;;;12.68;100.00
36454;BME280;22478;51.740;-1.314;2023-08-06T10:45:20;100479.18;;;12.14;100.00
36454;BME280;22478;51.740;-1.314;2023-08-06T10:47:48;100476.66;;;12.81;100.00
36454;BME280;22478;51.740;-1.314;2023-08-06T10:50:16;100474.87;;;13.29;100.00
36454;BME280;22478;51.740;-1.314;2023-08-06T10:52:43;100469.39;;;15.35;88.14
36454;BME280;22478;51.740;-1.314;2023-08-06T10:55:11;100467.67;;;14.25;87.81
36454;BME280;22478;51.740;-1.314;2023-08-06T10:57:38;100468.48;;;13.04;92.78
36454;BME280;22478;51.740;-1.314;2023-08-06T11:00:07;100462.41;;;14.84;93.05
36454;BME280;22478;51.740;-1.314;2023-08-06T11:02:35;100460.39;;;14.07;85.72
36454;BME280;22478;51.740;-1.314;2023-08-06T11:05:10;100460.81;;;14.18;82.33
36454;BME280;22478;51.740;-1.314;2023-08-06T11:07:38;100460.59;;;14.95;82.85
36454;BME280;22478;51.740;-1.314;2023-08-06T11:10:07;100470.31;;;12.74;92.73
36454;BME280;22478;51.740;-1.314;2023-08-06T11:12:35;100456.23;;;15.50;84.29
36454;BME280;22478;51.740;-1.314;2023-08-06T11:15:04;100462.76;;;13.51;84.64
36454;BME280;22478;51.740;-1.314;2023-08-06T11:17:33;100458.25;;;14.41;79.03
36454;BME280;22478;51.740;-1.314;2023-08-06T11:20:01;100465.72;;;13.33;85.11
36454;BME280;22478;51.740;-1.314;2023-08-06T11:22:29;100456.26;;;17.04;78.62
36454;BME280;22478;51.740;-1.314;2023-08-06T11:24:57;100455.81;;;16.88;72.55
36454;BME280;22478;51.740;-1.314;2023-08-06T11:27:26;100454.53;;;14.63;73.22
36454;BME280;22478;51.740;-1.314;2023-08-06T11:29:54;100455.34;;;14.05;78.45
36454;BME280;22478;51.740;-1.314;2023-08-06T11:32:22;100461.18;;;14.05;83.77
36454;BME280;22478;51.740;-1.314;2023-08-06T11:34:49;100456.55;;;14.24;79.09
36454;BME280;22478;51.740;-1.314;2023-08-06T11:37:16;100447.84;;;14.61;71.96
36454;BME280;22478;51.740;-1.314;2023-08-06T11:39:47;100452.31;;;15.73;72.32
36454;BME280;22478;51.740;-1.314;2023-08-06T11:42:15;100448.32;;;16.29;66.00
36454;BME280;22478;51.740;-1.314;2023-08-06T11:44:43;100446.52;;;15.76;66.62
36454;BME280;22478;51.740;-1.314;2023-08-06T11:47:13;100452.64;;;16.36;65.84
36454;BME280;22478;51.740;-1.314;2023-08-06T11:49:43;100452.90;;;13.87;67.53
36454;BME280;22478;51.740;-1.314;2023-08-06T11:52:14;100456.05;;;14.61;71.54
36454;BME280;22478;51.740;-1.314;2023-08-06T11:54:42;100452.41;;;15.74;67.72
36454;BME280;22478;51.740;-1.314;2023-08-06T11:57:10;100449.31;;;15.13;66.75
36454;BME280;22478;51.740;-1.314;2023-08-06T11:59:38;100454.97;;;15.68;69.87
36454;BME280;22478;51.740;-1.314;2023-08-06T12:02:08;100453.92;;;16.45;65.54
36454;BME280;22478;51.740;-1.314;2023-08-06T12:05:11;100450.99;;;17.65;63.57
36454;BME280;22478;51.740;-1.314;2023-08-06T12:07:39;100443.69;;;19.21;57.49
36454;BME280;22478;51.740;-1.314;2023-08-06T12:10:08;100448.27;;;18.91;58.63
36454;BME280;22478;51.740;-1.314;2023-08-06T12:12:35;100447.00;;;17.58;57.89
36454;BME280;22478;51.740;-1.314;2023-08-06T12:15:03;100449.45;;;17.23;60.19
36454;BME280;22478;51.740;-1.314;2023-08-06T12:17:31;100448.97;;;16.72;61.69
36454;BME280;22478;51.740;-1.314;2023-08-06T12:19:59;100438.32;;;18.21;54.47
36454;BME280;22478;51.740;-1.314;2023-08-06T12:22:26;100433.41;;;20.63;54.92
36454;BME280;22478;51.740;-1.314;2023-08-06T12:24:53;100435.83;;;19.00;50.38
36454;BME280;22478;51.740;-1.314;2023-08-06T12:27:21;100448.92;;;15.91;54.51
36454;BME280;22478;51.740;-1.314;2023-08-06T12:29:49;100438.86;;;20.00;50.73
36454;BME280;22478;51.740;-1.314;2023-08-06T12:32:16;100441.50;;;17.26;49.97
36454;BME280;22478;51.740;-1.314;2023-08-06T12:34:44;100444.18;;;16.58;52.94
36454;BME280;22478;51.740;-1.314;2023-08-06T12:37:12;100437.85;;;19.67;47.88
36454;BME280;22478;51.740;-1.314;2023-08-06T12:39:40;100433.08;;;20.27;48.37
36454;BME280;22478;51.740;-1.314;2023-08-06T12:42:07;100438.53;;;16.39;51.85